sensor_id;sensor_type;location;lat;lon;timestamp;P1;durP1;ratioP1;P2;durP2;ratioP2
12218;SDS011;6172;42.646;23.344;2023-02-08T00:01:20;14.80;;;7.87;;
12218;SDS011;6172;42.646;23.344;2023-02-08T00:03:53;18.90;;;7.93;;
12218;SDS011;6172;42.646;23.344;2023-02-08T00:06:23;15.83;;;8.50;;
12218;SDS011;6172;42.646;23.344;2023-02-08T00:08:51;16.27;;;8.10;;
12218;SDS011;6172;42.646;23.344;2023-02-08T00:11:35;19.80;;;7.47;;
12218;SDS011;6172;42.646;23.344;2023-02-08T00:14:06;14.60;;;7.03;;
12218;SDS011;6172;42.646;23.344;2023-02-08T00:16:37;16.77;;;8.07;;
12218;SDS011;6172;42.646;23.344;2023-02-08T00:19:06;20.27;;;9.07;;
12218;SDS011;6172;42.646;23.344;2023-02-08T00:21:33;19.47;;;7.77;;
12218;SDS011;6172;42.646;23.344;2023-02-08T00:24:01;18.00;;;9.40;;
12218;SDS011;6172;42.646;23.344;2023-02-08T00:26:28;15.50;;;7.60;;
12218;SDS011;6172;42.646;23.344;2023-02-08T00:28:55;15.10;;;8.00;;
12218;SDS011;6172;42.646;23.344;2023-02-08T00:31:23;16.43;;;7.80;;
12218;SDS011;6172;42.646;23.344;2023-02-08T00:33:59;17.40;;;7.90;;
12218;SDS011;6172;42.646;23.344;2023-02-08T00:36:46;14.43;;;7.20;;
12218;SDS011;6172;42.646;23.344;2023-02-08T00:39:42;16.90;;;7.53;;
12218;SDS011;6172;42.646;23.344;2023-02-08T00:42:16;16.57;;;8.23;;
12218;SDS011;6172;42.646;23.344;2023-02-08T00:44:48;19.20;;;8.77;;
12218;SDS011;6172;42.646;23.344;2023-02-08T00:47:17;15.37;;;8.23;;
12218;SDS011;6172;42.646;23.344;2023-02-08T00:49:53;15.13;;;8.07;;
12218;SDS011;6172;42.646;23.344;2023-02-08T00:52:28;19.50;;;7.73;;
12218;SDS011;6172;42.646;23.344;2023-02-08T00:55:06;15.10;;;8.03;;
12218;SDS011;6172;42.646;23.344;2023-02-08T00:57:44;18.23;;;7.80;;
12218;SDS011;6172;42.646;23.344;2023-02-08T01:00:14;16.87;;;8.07;;
12218;SDS011;6172;42.646;23.344;2023-02-08T01:02:50;18.93;;;7.93;;
12218;SDS011;6172;42.646;23.344;2023-02-08T01:08:16;13.97;;;7.70;;
12218;SDS011;6172;42.646;23.344;2023-02-08T01:10:45;14.00;;;7.63;;
12218;SDS011;6172;42.646;23.344;2023-02-08T01:13:14;19.83;;;8.80;;
12218;SDS011;6172;42.646;23.344;2023-02-08T01:15:42;18.30;;;8.03;;
12218;SDS011;6172;42.646;23.344;2023-02-08T01:18:29;17.00;;;8.70;;
12218;SDS011;6172;42.646;23.344;2023-02-08T01:21:03;15.37;;;8.73;;
12218;SDS011;6172;42.646;23.344;2023-02-08T01:23:33;14.93;;;8.43;;
12218;SDS011;6172;42.646;23.344;2023-02-08T01:26:08;17.10;;;8.37;;
12218;SDS011;6172;42.646;23.344;2023-02-08T01:28:37;19.37;;;8.97;;
12218;SDS011;6172;42.646;23.344;2023-02-08T01:31:09;20.60;;;9.20;;
12218;SDS011;6172;42.646;23.344;2023-02-08T01:33:52;18.90;;;8.97;;
12218;SDS011;6172;42.646;23.344;2023-02-08T01:36:24;17.47;;;9.83;;
12218;SDS011;6172;42.646;23.344;2023-02-08T01:38:52;16.63;;;8.70;;
12218;SDS011;6172;42.646;23.344;2023-02-08T01:41:35;19.03;;;9.30;;
12218;SDS011;6172;42.646;23.344;2023-02-08T01:44:08;18.73;;;9.53;;
12218;SDS011;6172;42.646;23.344;2023-02-08T01:47:26;19.77;;;9.37;;
12218;SDS011;6172;42.646;23.344;2023-02-08T01:50:12;17.77;;;9.30;;
12218;SDS011;6172;42.646;23.344;2023-02-08T01:53:04;18.60;;;8.67;;
12218;SDS011;6172;42.646;23.344;2023-02-08T01:55:45;17.63;;;8.43;;
12218;SDS011;6172;42.646;23.344;2023-02-08T01:58:35;16.90;;;8.57;;
12218;SDS011;6172;42.646;23.344;2023-02-08T02:01:11;21.93;;;9.83;;
12218;SDS011;6172;42.646;23.344;2023-02-08T02:03:59;15.77;;;9.27;;
12218;SDS011;6172;42.646;23.344;2023-02-08T02:06:37;19.80;;;9.27;;
12218;SDS011;6172;42.646;23.344;2023-02-08T02:15:46;15.13;;;8.67;;
12218;SDS011;6172;42.646;23.344;2023-02-08T02:18:19;18.50;;;8.83;;
12218;SDS011;6172;42.646;23.344;2023-02-08T02:34:07;16.50;;;9.00;;
12218;SDS011;6172;42.646;23.344;2023-02-08T02:36:58;20.67;;;10.17;;
12218;SDS011;6172;42.646;23.344;2023-02-08T02:39:41;21.47;;;9.90;;
12218;SDS011;6172;42.646;23.344;2023-02-08T02:42:33;24.30;;;11.10;;
12218;SDS011;6172;42.646;23.344;2023-02-08T02:56:02;20.60;;;10.57;;
12218;SDS011;6172;42.646;23.344;2023-02-08T02:58:44;20.67;;;11.03;;
12218;SDS011;6172;42.646;23.344;2023-02-08T03:01:20;24.77;;;11.43;;
12218;SDS011;6172;42.646;23.344;2023-02-08T03:03:58;21.83;;;10.70;;
12218;SDS011;6172;42.646;23.344;2023-02-08T03:06:42;21.90;;;10.87;;
12218;SDS011;6172;42.646;23.344;2023-02-08T03:09:30;27.63;;;12.07;;
12218;SDS011;6172;42.646;23.344;2023-02-08T03:15:28;27.27;;;12.90;;
12218;SDS011;6172;42.646;23.344;2023-02-08T03:18:20;22.90;;;12.03;;
12218;SDS011;6172;42.646;23.344;2023-02-08T03:21:02;23.73;;;12.50;;
12218;SDS011;6172;42.646;23.344;2023-02-08T03:27:31;23.97;;;11.93;;
12218;SDS011;6172;42.646;23.344;2023-02-08T03:33:45;25.83;;;13.17;;
12218;SDS011;6172;42.646;23.344;2023-02-08T03:36:39;25.90;;;12.20;;
12218;SDS011;6172;42.646;23.344;2023-02-08T03:39:51;28.10;;;13.20;;
12218;SDS011;6172;42.646;23.344;2023-02-08T03:42:56;19.67;;;10.37;;
12218;SDS011;6172;42.646;23.344;2023-02-08T03:45:49;25.97;;;12.03;;
12218;SDS011;6172;42.646;23.344;2023-02-08T03:55:00;23.13;;;10.77;;
12218;SDS011;6172;42.646;23.344;2023-02-08T03:57:47;26.77;;;12.20;;
12218;SDS011;6172;42.646;23.344;2023-02-08T04:00:26;24.77;;;12.40;;
12218;SDS011;6172;42.646;23.344;2023-02-08T04:03:23;25.07;;;12.10;;
12218;SDS011;6172;42.646;23.344;2023-02-08T04:06:10;25.13;;;12.47;;
12218;SDS011;6172;42.646;23.344;2023-02-08T04:08:46;26.20;;;13.53;;
12218;SDS011;6172;42.646;23.344;2023-02-08T04:11:16;29.23;;;14.10;;
12218;SDS011;6172;42.646;23.344;2023-02-08T04:13:47;29.90;;;14.53;;
12218;SDS011;6172;42.646;23.344;2023-02-08T04:16:19;26.73;;;13.47;;
12218;SDS011;6172;42.646;23.344;2023-02-08T04:18:58;26.93;;;14.03;;
12218;SDS011;6172;42.646;23.344;2023-02-08T04:22:15;28.30;;;13.60;;
12218;SDS011;6172;42.646;23.344;2023-02-08T04:24:51;31.13;;;15.03;;
12218;SDS011;6172;42.646;23.344;2023-02-08T04:27:36;31.03;;;14.47;;
12218;SDS011;6172;42.646;23.344;2023-02-08T04:30:11;27.57;;;13.53;;
12218;SDS011;6172;42.646;23.344;2023-02-08T04:33:00;29.33;;;13.20;;
12218;SDS011;6172;42.646;23.344;2023-02-08T04:35:48;27.37;;;13.90;;
12218;SDS011;6172;42.646;23.344;2023-02-08T04:38:49;29.23;;;13.73;;
12218;SDS011;6172;42.646;23.344;2023-02-08T04:44:07;30.33;;;13.43;;
12218;SDS011;6172;42.646;23.344;2023-02-08T04:46:51;29.50;;;13.73;;
12218;SDS011;6172;42.646;23.344;2023-02-08T04:49:19;29.43;;;14.47;;
12218;SDS011;6172;42.646;23.344;2023-02-08T04:51:48;29.83;;;14.30;;
12218;SDS011;6172;42.646;23.344;2023-02-08T04:54:21;27.33;;;14.00;;
12218;SDS011;6172;42.646;23.344;2023-02-08T04:59:41;29.73;;;14.77;;
12218;SDS011;6172;42.646;23.344;2023-02-08T05:02:09;30.10;;;15.07;;
12218;SDS011;6172;42.646;23.344;2023-02-08T05:04:38;27.97;;;14.50;;
12218;SDS011;6172;42.646;23.344;2023-02-08T05:27:08;40.90;;;15.83;;
12218;SDS011;6172;42.646;23.344;2023-02-08T05:30:07;35.93;;;16.83;;
12218;SDS011;6172;42.646;23.344;2023-02-08T05:48:58;30.60;;;13.10;;
12218;SDS011;6172;42.646;23.344;2023-02-08T05:51:36;34.83;;;16.67;;
12218;SDS011;6172;42.646;23.344;2023-02-08T05:54:30;30.97;;;16.40;;
12218;SDS011;6172;42.646;23.344;2023-02-08T05:57:45;36.43;;;15.87;;
12218;SDS011;6172;42.646;23.344;2023-02-08T06:00:47;39.00;;;16.97;;
12218;SDS011;6172;42.646;23.344;2023-02-08T06:03:24;36.67;;;16.30;;
12218;SDS011;6172;42.646;23.344;2023-02-08T06:06:21;32.07;;;16.03;;
12218;SDS011;6172;42.646;23.344;2023-02-08T06:08:55;36.13;;;16.13;;
12218;SDS011;6172;42.646;23.344;2023-02-08T06:11:39;31.77;;;15.83;;
12218;SDS011;6172;42.646;23.344;2023-02-08T06:14:26;38.07;;;16.93;;
12218;SDS011;6172;42.646;23.344;2023-02-08T06:17:17;33.90;;;15.03;;
12218;SDS011;6172;42.646;23.344;2023-02-08T06:19:52;37.73;;;17.90;;
12218;SDS011;6172;42.646;23.344;2023-02-08T06:22:29;39.67;;;18.87;;
12218;SDS011;6172;42.646;23.344;2023-02-08T06:25:09;50.93;;;22.93;;
12218;SDS011;6172;42.646;23.344;2023-02-08T06:27:54;43.27;;;20.93;;
12218;SDS011;6172;42.646;23.344;2023-02-08T06:30:22;43.20;;;20.90;;
12218;SDS011;6172;42.646;23.344;2023-02-08T06:32:51;44.33;;;18.97;;
12218;SDS011;6172;42.646;23.344;2023-02-08T06:35:33;32.83;;;16.80;;
12218;SDS011;6172;42.646;23.344;2023-02-08T06:38:28;31.73;;;16.67;;
12218;SDS011;6172;42.646;23.344;2023-02-08T06:41:00;34.53;;;16.33;;
12218;SDS011;6172;42.646;23.344;2023-02-08T06:43:28;32.90;;;16.47;;
12218;SDS011;6172;42.646;23.344;2023-02-08T06:46:09;31.63;;;15.80;;
12218;SDS011;6172;42.646;23.344;2023-02-08T06:48:53;27.47;;;14.07;;
12218;SDS011;6172;42.646;23.344;2023-02-08T06:51:30;30.83;;;15.30;;
12218;SDS011;6172;42.646;23.344;2023-02-08T06:54:11;30.77;;;14.10;;
12218;SDS011;6172;42.646;23.344;2023-02-08T06:56:52;30.83;;;14.83;;
12218;SDS011;6172;42.646;23.344;2023-02-08T06:59:26;33.73;;;15.57;;
12218;SDS011;6172;42.646;23.344;2023-02-08T07:01:56;29.33;;;15.27;;
12218;SDS011;6172;42.646;23.344;2023-02-08T07:04:33;30.27;;;15.20;;
12218;SDS011;6172;42.646;23.344;2023-02-08T07:07:12;33.03;;;14.87;;
12218;SDS011;6172;42.646;23.344;2023-02-08T07:09:59;31.03;;;15.80;;
12218;SDS011;6172;42.646;23.344;2023-02-08T07:12:44;30.97;;;15.00;;
12218;SDS011;6172;42.646;23.344;2023-02-08T07:15:33;27.17;;;13.60;;
12218;SDS011;6172;42.646;23.344;2023-02-08T07:18:18;24.90;;;13.40;;
12218;SDS011;6172;42.646;23.344;2023-02-08T07:21:02;25.33;;;13.07;;
12218;SDS011;6172;42.646;23.344;2023-02-08T07:23:32;22.27;;;13.17;;
12218;SDS011;6172;42.646;23.344;2023-02-08T07:26:07;26.20;;;13.47;;
12218;SDS011;6172;42.646;23.344;2023-02-08T07:28:38;25.17;;;13.03;;
12218;SDS011;6172;42.646;23.344;2023-02-08T07:31:12;22.77;;;13.00;;
12218;SDS011;6172;42.646;23.344;2023-02-08T07:33:44;27.17;;;15.00;;
12218;SDS011;6172;42.646;23.344;2023-02-08T07:36:12;31.23;;;17.20;;
12218;SDS011;6172;42.646;23.344;2023-02-08T07:38:40;29.90;;;17.10;;
12218;SDS011;6172;42.646;23.344;2023-02-08T07:41:10;28.10;;;15.90;;
12218;SDS011;6172;42.646;23.344;2023-02-08T07:43:40;30.30;;;16.10;;
12218;SDS011;6172;42.646;23.344;2023-02-08T07:46:07;34.13;;;16.87;;
12218;SDS011;6172;42.646;23.344;2023-02-08T07:48:36;29.87;;;15.23;;
12218;SDS011;6172;42.646;23.344;2023-02-08T07:51:05;32.27;;;17.07;;
12218;SDS011;6172;42.646;23.344;2023-02-08T07:53:35;31.77;;;16.07;;
12218;SDS011;6172;42.646;23.344;2023-02-08T07:56:02;29.97;;;16.67;;
12218;SDS011;6172;42.646;23.344;2023-02-08T07:58:37;30.93;;;17.07;;
12218;SDS011;6172;42.646;23.344;2023-02-08T08:01:04;33.57;;;18.97;;
12218;SDS011;6172;42.646;23.344;2023-02-08T08:03:32;31.73;;;17.77;;
12218;SDS011;6172;42.646;23.344;2023-02-08T08:06:03;28.60;;;16.07;;
12218;SDS011;6172;42.646;23.344;2023-02-08T08:08:31;30.67;;;17.10;;
12218;SDS011;6172;42.646;23.344;2023-02-08T08:10:59;32.57;;;18.07;;
12218;SDS011;6172;42.646;23.344;2023-02-08T08:13:27;28.97;;;16.73;;
12218;SDS011;6172;42.646;23.344;2023-02-08T08:16:08;28.93;;;16.27;;
12218;SDS011;6172;42.646;23.344;2023-02-08T08:18:37;27.63;;;15.90;;
12218;SDS011;6172;42.646;23.344;2023-02-08T08:21:05;27.30;;;16.20;;
12218;SDS011;6172;42.646;23.344;2023-02-08T08:23:33;31.03;;;15.93;;
12218;SDS011;6172;42.646;23.344;2023-02-08T08:26:05;28.77;;;15.10;;
12218;SDS011;6172;42.646;23.344;2023-02-08T08:28:33;26.23;;;15.90;;
12218;SDS011;6172;42.646;23.344;2023-02-08T08:31:03;28.53;;;14.77;;
12218;SDS011;6172;42.646;23.344;2023-02-08T08:33:35;28.13;;;14.93;;
12218;SDS011;6172;42.646;23.344;2023-02-08T08:36:05;25.80;;;14.47;;
12218;SDS011;6172;42.646;23.344;2023-02-08T08:38:36;20.13;;;12.47;;
12218;SDS011;6172;42.646;23.344;2023-02-08T08:41:05;21.93;;;12.67;;
12218;SDS011;6172;42.646;23.344;2023-02-08T08:43:35;22.00;;;11.70;;
12218;SDS011;6172;42.646;23.344;2023-02-08T08:46:08;20.67;;;10.67;;
12218;SDS011;6172;42.646;23.344;2023-02-08T08:48:39;17.37;;;9.27;;
12218;SDS011;6172;42.646;23.344;2023-02-08T08:51:20;18.57;;;10.23;;
12218;SDS011;6172;42.646;23.344;2023-02-08T08:53:53;23.80;;;13.03;;
12218;SDS011;6172;42.646;23.344;2023-02-08T08:56:37;25.70;;;12.87;;
12218;SDS011;6172;42.646;23.344;2023-02-08T08:59:18;24.43;;;13.03;;
12218;SDS011;6172;42.646;23.344;2023-02-08T09:01:47;25.07;;;13.83;;
12218;SDS011;6172;42.646;23.344;2023-02-08T09:04:14;29.90;;;15.60;;
12218;SDS011;6172;42.646;23.344;2023-02-08T09:06:42;23.10;;;13.30;;
12218;SDS011;6172;42.646;23.344;2023-02-08T09:09:10;27.70;;;14.80;;
12218;SDS011;6172;42.646;23.344;2023-02-08T09:11:43;25.57;;;14.33;;
12218;SDS011;6172;42.646;23.344;2023-02-08T09:14:12;32.37;;;15.67;;
12218;SDS011;6172;42.646;23.344;2023-02-08T09:17:07;27.73;;;14.03;;
12218;SDS011;6172;42.646;23.344;2023-02-08T09:19:40;17.87;;;9.80;;
12218;SDS011;6172;42.646;23.344;2023-02-08T09:22:13;29.07;;;14.67;;
12218;SDS011;6172;42.646;23.344;2023-02-08T09:24:40;35.90;;;16.33;;
12218;SDS011;6172;42.646;23.344;2023-02-08T09:27:12;29.20;;;15.03;;
12218;SDS011;6172;42.646;23.344;2023-02-08T09:29:40;29.10;;;15.17;;
12218;SDS011;6172;42.646;23.344;2023-02-08T09:32:09;26.43;;;13.10;;
12218;SDS011;6172;42.646;23.344;2023-02-08T09:34:36;28.70;;;12.47;;
12218;SDS011;6172;42.646;23.344;2023-02-08T09:37:03;19.60;;;11.57;;
12218;SDS011;6172;42.646;23.344;2023-02-08T09:39:31;18.97;;;9.90;;
12218;SDS011;6172;42.646;23.344;2023-02-08T09:42:03;23.37;;;10.70;;
12218;SDS011;6172;42.646;23.344;2023-02-08T09:48:04;19.90;;;11.87;;
12218;SDS011;6172;42.646;23.344;2023-02-08T09:50:45;21.10;;;10.90;;
12218;SDS011;6172;42.646;23.344;2023-02-08T09:53:20;19.10;;;9.73;;
12218;SDS011;6172;42.646;23.344;2023-02-08T09:55:52;23.23;;;10.87;;
12218;SDS011;6172;42.646;23.344;2023-02-08T09:58:26;19.77;;;9.57;;
12218;SDS011;6172;42.646;23.344;2023-02-08T10:01:04;13.40;;;7.77;;
12218;SDS011;6172;42.646;23.344;2023-02-08T10:03:40;20.53;;;9.17;;
12218;SDS011;6172;42.646;23.344;2023-02-08T10:06:10;17.17;;;8.17;;
12218;SDS011;6172;42.646;23.344;2023-02-08T10:08:40;14.90;;;8.50;;
12218;SDS011;6172;42.646;23.344;2023-02-08T10:11:15;17.37;;;8.83;;
12218;SDS011;6172;42.646;23.344;2023-02-08T10:14:22;20.33;;;8.40;;
12218;SDS011;6172;42.646;23.344;2023-02-08T10:17:32;14.93;;;8.10;;
12218;SDS011;6172;42.646;23.344;2023-02-08T10:20:23;17.07;;;8.63;;
12218;SDS011;6172;42.646;23.344;2023-02-08T10:23:00;20.33;;;9.57;;
12218;SDS011;6172;42.646;23.344;2023-02-08T10:25:44;19.97;;;9.20;;
12218;SDS011;6172;42.646;23.344;2023-02-08T10:28:41;18.17;;;9.17;;
12218;SDS011;6172;42.646;23.344;2023-02-08T10:31:19;17.47;;;8.70;;
12218;SDS011;6172;42.646;23.344;2023-02-08T10:33:59;15.57;;;7.40;;
12218;SDS011;6172;42.646;23.344;2023-02-08T10:36:46;24.10;;;8.57;;
12218;SDS011;6172;42.646;23.344;2023-02-08T10:39:18;15.90;;;8.20;;
12218;SDS011;6172;42.646;23.344;2023-02-08T10:41:52;21.83;;;9.23;;
12218;SDS011;6172;42.646;23.344;2023-02-08T10:44:22;24.10;;;8.83;;
12218;SDS011;6172;42.646;23.344;2023-02-08T10:47:00;17.70;;;8.30;;
12218;SDS011;6172;42.646;23.344;2023-02-08T10:49:51;14.30;;;7.83;;
12218;SDS011;6172;42.646;23.344;2023-02-08T10:52:26;16.17;;;8.90;;
12218;SDS011;6172;42.646;23.344;2023-02-08T10:54:56;21.13;;;9.20;;
12218;SDS011;6172;42.646;23.344;2023-02-08T10:57:24;21.43;;;10.87;;
12218;SDS011;6172;42.646;23.344;2023-02-08T10:59:57;17.33;;;8.57;;
12218;SDS011;6172;42.646;23.344;2023-02-08T11:02:38;16.40;;;9.27;;
12218;SDS011;6172;42.646;23.344;2023-02-08T11:05:08;16.90;;;9.10;;
12218;SDS011;6172;42.646;23.344;2023-02-08T11:07:40;21.60;;;10.00;;
12218;SDS011;6172;42.646;23.344;2023-02-08T11:12:55;20.90;;;10.33;;
12218;SDS011;6172;42.646;23.344;2023-02-08T11:15:25;19.27;;;8.63;;
12218;SDS011;6172;42.646;23.344;2023-02-08T11:17:56;14.87;;;8.40;;
12218;SDS011;6172;42.646;23.344;2023-02-08T11:20:26;17.83;;;8.53;;
12218;SDS011;6172;42.646;23.344;2023-02-08T11:23:00;15.73;;;8.80;;
12218;SDS011;6172;42.646;23.344;2023-02-08T11:25:29;14.33;;;7.77;;
12218;SDS011;6172;42.646;23.344;2023-02-08T11:27:59;15.37;;;7.97;;
12218;SDS011;6172;42.646;23.344;2023-02-08T11:30:26;13.67;;;8.63;;
12218;SDS011;6172;42.646;23.344;2023-02-08T11:35:42;13.43;;;8.63;;
12218;SDS011;6172;42.646;23.344;2023-02-08T11:38:21;15.40;;;8.17;;
12218;SDS011;6172;42.646;23.344;2023-02-08T11:40:51;15.03;;;8.57;;
12218;SDS011;6172;42.646;23.344;2023-02-08T11:43:21;16.40;;;8.53;;
12218;SDS011;6172;42.646;23.344;2023-02-08T11:45:51;17.47;;;8.57;;
12218;SDS011;6172;42.646;23.344;2023-02-08T11:48:21;19.73;;;8.57;;
12218;SDS011;6172;42.646;23.344;2023-02-08T11:50:54;14.50;;;7.90;;
12218;SDS011;6172;42.646;23.344;2023-02-08T11:53:28;17.03;;;7.57;;
12218;SDS011;6172;42.646;23.344;2023-02-08T11:56:05;15.10;;;7.70;;
12218;SDS011;6172;42.646;23.344;2023-02-08T11:58:40;18.20;;;7.63;;
12218;SDS011;6172;42.646;23.344;2023-02-08T12:01:17;13.90;;;7.50;;
12218;SDS011;6172;42.646;23.344;2023-02-08T12:03:46;15.70;;;7.07;;
12218;SDS011;6172;42.646;23.344;2023-02-08T12:06:24;16.60;;;7.10;;
12218;SDS011;6172;42.646;23.344;2023-02-08T12:09:15;13.00;;;7.00;;
12218;SDS011;6172;42.646;23.344;2023-02-08T12:11:53;11.50;;;6.70;;
12218;SDS011;6172;42.646;23.344;2023-02-08T12:14:33;14.50;;;6.00;;
12218;SDS011;6172;42.646;23.344;2023-02-08T12:23:15;15.53;;;6.90;;
12218;SDS011;6172;42.646;23.344;2023-02-08T12:26:07;14.73;;;6.83;;
12218;SDS011;6172;42.646;23.344;2023-02-08T12:31:51;13.50;;;6.30;;
12218;SDS011;6172;42.646;23.344;2023-02-08T12:34:34;9.13;;;5.70;;
12218;SDS011;6172;42.646;23.344;2023-02-08T12:37:17;13.23;;;6.37;;
12218;SDS011;6172;42.646;23.344;2023-02-08T12:40:16;12.73;;;5.93;;
12218;SDS011;6172;42.646;23.344;2023-02-08T12:43:16;15.87;;;5.93;;
12218;SDS011;6172;42.646;23.344;2023-02-08T12:51:41;10.53;;;5.63;;
12218;SDS011;6172;42.646;23.344;2023-02-08T12:54:15;13.03;;;5.53;;
12218;SDS011;6172;42.646;23.344;2023-02-08T12:56:54;7.27;;;4.17;;
12218;SDS011;6172;42.646;23.344;2023-02-08T12:59:29;16.00;;;8.00;;
12218;SDS011;6172;42.646;23.344;2023-02-08T13:02:03;15.63;;;7.20;;
12218;SDS011;6172;42.646;23.344;2023-02-08T13:04:44;15.83;;;6.23;;
12218;SDS011;6172;42.646;23.344;2023-02-08T13:07:28;18.83;;;6.93;;
12218;SDS011;6172;42.646;23.344;2023-02-08T13:10:05;14.70;;;5.70;;
12218;SDS011;6172;42.646;23.344;2023-02-08T13:12:58;11.77;;;4.90;;
12218;SDS011;6172;42.646;23.344;2023-02-08T13:15:34;11.17;;;4.90;;
12218;SDS011;6172;42.646;23.344;2023-02-08T13:18:10;7.23;;;4.63;;
12218;SDS011;6172;42.646;23.344;2023-02-08T13:20:46;6.57;;;4.00;;
12218;SDS011;6172;42.646;23.344;2023-02-08T13:23:37;8.73;;;4.13;;
12218;SDS011;6172;42.646;23.344;2023-02-08T13:26:39;9.73;;;3.97;;
12218;SDS011;6172;42.646;23.344;2023-02-08T13:29:14;6.17;;;3.80;;
12218;SDS011;6172;42.646;23.344;2023-02-08T13:32:07;7.73;;;4.50;;
12218;SDS011;6172;42.646;23.344;2023-02-08T13:34:43;12.63;;;5.07;;
12218;SDS011;6172;42.646;23.344;2023-02-08T13:37:19;9.67;;;4.70;;
12218;SDS011;6172;42.646;23.344;2023-02-08T13:39:50;10.03;;;4.70;;
12218;SDS011;6172;42.646;23.344;2023-02-08T13:42:26;9.40;;;4.90;;
12218;SDS011;6172;42.646;23.344;2023-02-08T13:44:57;8.93;;;4.40;;
12218;SDS011;6172;42.646;23.344;2023-02-08T13:47:28;8.83;;;3.80;;
12218;SDS011;6172;42.646;23.344;2023-02-08T13:49:57;8.23;;;4.43;;
12218;SDS011;6172;42.646;23.344;2023-02-08T13:52:46;6.90;;;3.50;;
12218;SDS011;6172;42.646;23.344;2023-02-08T14:08:15;11.10;;;4.40;;
12218;SDS011;6172;42.646;23.344;2023-02-08T14:10:59;9.67;;;4.60;;
12218;SDS011;6172;42.646;23.344;2023-02-08T14:13:33;7.87;;;4.03;;
12218;SDS011;6172;42.646;23.344;2023-02-08T14:21:58;7.70;;;4.10;;
12218;SDS011;6172;42.646;23.344;2023-02-08T14:24:28;8.77;;;3.67;;
12218;SDS011;6172;42.646;23.344;2023-02-08T14:27:05;10.53;;;3.93;;
12218;SDS011;6172;42.646;23.344;2023-02-08T14:29:46;7.87;;;4.27;;
12218;SDS011;6172;42.646;23.344;2023-02-08T14:32:26;9.43;;;3.93;;
12218;SDS011;6172;42.646;23.344;2023-02-08T14:35:02;6.93;;;4.50;;
12218;SDS011;6172;42.646;23.344;2023-02-08T14:37:33;7.93;;;4.47;;
12218;SDS011;6172;42.646;23.344;2023-02-08T14:43:29;8.60;;;4.23;;
12218;SDS011;6172;42.646;23.344;2023-02-08T14:49:08;8.77;;;4.73;;
12218;SDS011;6172;42.646;23.344;2023-02-08T14:51:44;11.40;;;5.37;;
12218;SDS011;6172;42.646;23.344;2023-02-08T14:54:21;9.30;;;4.80;;
12218;SDS011;6172;42.646;23.344;2023-02-08T14:57:16;8.83;;;4.00;;
12218;SDS011;6172;42.646;23.344;2023-02-08T14:59:53;14.53;;;5.20;;
12218;SDS011;6172;42.646;23.344;2023-02-08T15:02:45;11.03;;;5.03;;
12218;SDS011;6172;42.646;23.344;2023-02-08T15:05:23;10.40;;;4.53;;
12218;SDS011;6172;42.646;23.344;2023-02-08T15:07:56;10.10;;;5.30;;
12218;SDS011;6172;42.646;23.344;2023-02-08T15:10:26;9.23;;;5.00;;
12218;SDS011;6172;42.646;23.344;2023-02-08T15:12:56;8.57;;;4.87;;
12218;SDS011;6172;42.646;23.344;2023-02-08T15:15:31;10.73;;;5.23;;
12218;SDS011;6172;42.646;23.344;2023-02-08T15:18:02;10.30;;;5.43;;
12218;SDS011;6172;42.646;23.344;2023-02-08T15:20:50;12.20;;;6.30;;
12218;SDS011;6172;42.646;23.344;2023-02-08T15:23:27;15.00;;;6.30;;
12218;SDS011;6172;42.646;23.344;2023-02-08T15:25:59;10.70;;;5.57;;
12218;SDS011;6172;42.646;23.344;2023-02-08T15:28:46;11.83;;;5.57;;
12218;SDS011;6172;42.646;23.344;2023-02-08T15:31:19;8.70;;;4.80;;
12218;SDS011;6172;42.646;23.344;2023-02-08T15:34:08;7.87;;;4.70;;
12218;SDS011;6172;42.646;23.344;2023-02-08T15:36:56;8.87;;;4.60;;
12218;SDS011;6172;42.646;23.344;2023-02-08T15:39:31;8.70;;;4.60;;
12218;SDS011;6172;42.646;23.344;2023-02-08T15:42:19;9.37;;;4.87;;
12218;SDS011;6172;42.646;23.344;2023-02-08T15:44:55;14.70;;;5.67;;
12218;SDS011;6172;42.646;23.344;2023-02-08T15:47:25;12.60;;;5.83;;
12218;SDS011;6172;42.646;23.344;2023-02-08T15:49:58;9.87;;;4.27;;
12218;SDS011;6172;42.646;23.344;2023-02-08T15:52:30;8.33;;;5.57;;
12218;SDS011;6172;42.646;23.344;2023-02-08T15:55:04;12.77;;;4.40;;
12218;SDS011;6172;42.646;23.344;2023-02-08T15:57:53;8.67;;;5.47;;
12218;SDS011;6172;42.646;23.344;2023-02-08T16:00:46;10.33;;;5.47;;
12218;SDS011;6172;42.646;23.344;2023-02-08T16:03:17;11.30;;;4.97;;
12218;SDS011;6172;42.646;23.344;2023-02-08T16:05:53;11.27;;;5.47;;
12218;SDS011;6172;42.646;23.344;2023-02-08T16:08:23;11.93;;;5.20;;
12218;SDS011;6172;42.646;23.344;2023-02-08T16:11:09;10.67;;;5.03;;
12218;SDS011;6172;42.646;23.344;2023-02-08T16:13:48;9.07;;;4.40;;
12218;SDS011;6172;42.646;23.344;2023-02-08T16:16:21;16.73;;;5.70;;
12218;SDS011;6172;42.646;23.344;2023-02-08T16:18:57;10.43;;;5.57;;
12218;SDS011;6172;42.646;23.344;2023-02-08T16:21:28;11.43;;;4.73;;
12218;SDS011;6172;42.646;23.344;2023-02-08T16:24:06;8.53;;;5.10;;
12218;SDS011;6172;42.646;23.344;2023-02-08T16:26:59;8.53;;;4.40;;
12218;SDS011;6172;42.646;23.344;2023-02-08T16:29:32;11.17;;;5.50;;
12218;SDS011;6172;42.646;23.344;2023-02-08T16:32:07;10.27;;;4.93;;
12218;SDS011;6172;42.646;23.344;2023-02-08T16:34:50;10.80;;;5.53;;
12218;SDS011;6172;42.646;23.344;2023-02-08T16:37:22;10.47;;;5.33;;
12218;SDS011;6172;42.646;23.344;2023-02-08T16:40:03;11.77;;;5.73;;
12218;SDS011;6172;42.646;23.344;2023-02-08T16:43:15;11.37;;;6.00;;
12218;SDS011;6172;42.646;23.344;2023-02-08T16:48:52;11.37;;;5.30;;
12218;SDS011;6172;42.646;23.344;2023-02-08T16:51:24;13.13;;;5.90;;
12218;SDS011;6172;42.646;23.344;2023-02-08T16:53:59;15.93;;;5.90;;
12218;SDS011;6172;42.646;23.344;2023-02-08T16:56:37;14.83;;;6.47;;
12218;SDS011;6172;42.646;23.344;2023-02-08T16:59:12;10.67;;;5.53;;
12218;SDS011;6172;42.646;23.344;2023-02-08T17:01:40;11.70;;;5.40;;
12218;SDS011;6172;42.646;23.344;2023-02-08T17:04:13;11.97;;;5.60;;
12218;SDS011;6172;42.646;23.344;2023-02-08T17:06:42;20.00;;;10.30;;
12218;SDS011;6172;42.646;23.344;2023-02-08T17:09:14;20.27;;;6.40;;
12218;SDS011;6172;42.646;23.344;2023-02-08T17:11:41;12.00;;;6.17;;
12218;SDS011;6172;42.646;23.344;2023-02-08T17:14:08;13.60;;;7.13;;
12218;SDS011;6172;42.646;23.344;2023-02-08T17:16:39;13.50;;;6.37;;
12218;SDS011;6172;42.646;23.344;2023-02-08T17:19:10;14.40;;;6.83;;
12218;SDS011;6172;42.646;23.344;2023-02-08T17:21:44;13.83;;;6.33;;
12218;SDS011;6172;42.646;23.344;2023-02-08T17:24:12;16.23;;;6.17;;
12218;SDS011;6172;42.646;23.344;2023-02-08T17:26:45;11.77;;;6.40;;
12218;SDS011;6172;42.646;23.344;2023-02-08T17:29:12;14.17;;;5.63;;
12218;SDS011;6172;42.646;23.344;2023-02-08T17:31:57;11.93;;;6.10;;
12218;SDS011;6172;42.646;23.344;2023-02-08T17:34:29;10.40;;;5.43;;
12218;SDS011;6172;42.646;23.344;2023-02-08T17:37:04;13.53;;;5.57;;
12218;SDS011;6172;42.646;23.344;2023-02-08T17:39:34;15.47;;;6.20;;
12218;SDS011;6172;42.646;23.344;2023-02-08T17:42:08;14.50;;;6.10;;
12218;SDS011;6172;42.646;23.344;2023-02-08T17:44:37;13.83;;;5.80;;
12218;SDS011;6172;42.646;23.344;2023-02-08T17:47:08;14.00;;;5.90;;
12218;SDS011;6172;42.646;23.344;2023-02-08T17:49:38;13.47;;;6.57;;
12218;SDS011;6172;42.646;23.344;2023-02-08T17:52:07;14.13;;;6.20;;
12218;SDS011;6172;42.646;23.344;2023-02-08T17:54:35;18.20;;;6.30;;